»·PEaware :: SWA489 KLAS-KDEN

SWA489 :: KLAS-KDEN

FLIGHT INFORMATION

Flight Status: Arrived
Operator:
Southwest Airlines
More flights by this operator :: More flights under this callsign
Pilot: Daniel W. (24238)
Aircraft: BOEING 737-700
(B737)
More flights by this aircraft type
Origin: KLAS McCarran Intl
United States
Destination: KDEN Denver Intl
United States
More flights between these airports :: More routes between these airports
Route: STAAV8 NICLE BUMMP SSKII2
File this flight plan on PilotEdge
Remarks: PBN / A1D1O1S2T1 NAV / RNVD1E1A1 RNP10 DOF / 210105 REG / N781WN EET / KZDV0030 CODE / AA963E PER / C
Altitude:
(Current/Filed)
37,000ft
Speed:
(Current/Filed)
438kts
Departed: 05-Jan-21 09:28 AM
Arrived: 05-Jan-21 10:53 AM
Distance/Time
Traveled:
544nm/1:25
Distance/Time
To Go:
Arrived

Flight Plot

Page will automatically refresh every two minutes.

Flight plan parsing failed; only flown route is shown


Map Options




Map Legend


Flown Route
Filed Route
Departure Airport
Arrival Airport
Navaid (VOR, NDB)
Fix

Horizontal Profiles

Position Reports

Time Latitude Longitude Heading Altitude Ground
Speed
05-Jan-21 08:32 36.079786 -115.145819 335 2189ft 0kts
05-Jan-21 08:33 36.079786 -115.145819 335 2189ft 0kts
05-Jan-21 08:34 36.079786 -115.145819 335 2189ft 0kts
05-Jan-21 08:35 36.079786 -115.145819 335 2189ft 0kts
05-Jan-21 08:36 36.079786 -115.145819 335 2189ft 0kts
05-Jan-21 08:37 36.079786 -115.145819 335 2189ft 0kts
05-Jan-21 08:38 36.079786 -115.145819 335 2189ft 0kts
05-Jan-21 08:39 36.079786 -115.145819 335 2189ft 0kts
05-Jan-21 08:40 36.079786 -115.145819 335 2189ft 0kts
05-Jan-21 08:41 36.079786 -115.145819 335 2189ft 0kts
05-Jan-21 08:42 36.079786 -115.145819 335 2189ft 0kts
05-Jan-21 08:43 36.079786 -115.145819 335 2189ft 0kts
05-Jan-21 08:44 36.079786 -115.145819 335 2189ft 0kts
05-Jan-21 08:45 36.079786 -115.145819 335 2189ft 0kts
05-Jan-21 08:46 36.079786 -115.145819 335 2189ft 0kts
05-Jan-21 08:47 36.079786 -115.145819 335 2189ft 0kts
05-Jan-21 08:48 36.079786 -115.145819 335 2189ft 0kts
05-Jan-21 08:49 36.079786 -115.145819 335 2189ft 0kts
05-Jan-21 08:50 36.079786 -115.145819 335 2189ft 0kts
05-Jan-21 08:51 36.079786 -115.145819 335 2189ft 0kts
05-Jan-21 08:52 36.079786 -115.145819 335 2189ft 0kts
05-Jan-21 08:53 36.079786 -115.145819 335 2189ft 0kts
05-Jan-21 08:54 36.079786 -115.145819 335 2189ft 0kts
05-Jan-21 08:55 36.079786 -115.145819 335 2189ft 0kts
05-Jan-21 08:56 36.079786 -115.145819 335 2189ft 0kts
05-Jan-21 08:57 36.079786 -115.145819 335 2189ft 0kts
05-Jan-21 08:58 36.079786 -115.145819 335 2189ft 0kts
05-Jan-21 08:59 36.079786 -115.145819 335 2189ft 0kts
05-Jan-21 09:00 36.079786 -115.145819 335 2189ft 0kts
05-Jan-21 09:01 36.079786 -115.145819 335 2189ft 0kts
05-Jan-21 09:02 36.079786 -115.145819 335 2189ft 0kts
05-Jan-21 09:03 36.079786 -115.145819 335 2189ft 0kts
05-Jan-21 09:04 36.079786 -115.145819 335 2189ft 0kts
05-Jan-21 09:05 36.079786 -115.145819 335 2189ft 0kts
05-Jan-21 09:06 36.079786 -115.145819 335 2189ft 0kts
05-Jan-21 09:07 36.079786 -115.145819 335 2189ft 0kts
05-Jan-21 09:08 36.079786 -115.145819 335 2189ft 0kts
05-Jan-21 09:09 36.079786 -115.145819 335 2189ft 0kts
05-Jan-21 09:11 36.079786 -115.145819 335 2189ft 0kts
05-Jan-21 09:12 36.079786 -115.145819 335 2189ft 0kts
05-Jan-21 09:13 36.079786 -115.145819 335 2189ft 0kts
05-Jan-21 09:14 36.079786 -115.145819 335 2189ft 0kts
05-Jan-21 09:15 36.079786 -115.145819 335 2189ft 0kts
05-Jan-21 09:16 36.079583 -115.145680 317 2189ft 2kts
05-Jan-21 09:17 36.079635 -115.144836 229 2189ft 2kts
05-Jan-21 09:18 36.079745 -115.144679 231 2189ft 0kts
05-Jan-21 09:19 36.079745 -115.144679 231 2189ft 0kts
05-Jan-21 09:20 36.079038 -115.144842 179 2189ft 1kts
05-Jan-21 09:21 36.078271 -115.142424 89 2189ft 17kts
05-Jan-21 09:22 36.078280 -115.136190 89 2189ft 21kts
05-Jan-21 09:23 36.078288 -115.127965 89 2189ft 22kts
05-Jan-21 09:24 36.077681 -115.121763 129 2189ft 7kts
05-Jan-21 09:25 36.077441 -115.121400 129 2189ft 0kts
05-Jan-21 09:26 36.077440 -115.121398 129 2189ft 0kts
05-Jan-21 09:27 36.076427 -115.122629 270 2189ft 18kts
05-Jan-21 09:27 36.076359 -115.152352 271 2431ft 165kts
05-Jan-21 09:28 36.077158 -115.210944 272 4372ft 187kts
05-Jan-21 09:30 36.086884 -115.292228 313 6007ft 230kts
05-Jan-21 09:31 36.148079 -115.294291 36 8790ft 245kts
05-Jan-21 09:31 36.181676 -115.235536 66 11416ft 274kts
05-Jan-21 09:32 36.197952 -115.128855 85 13161ft 363kts
05-Jan-21 09:33 36.198524 -114.995729 86 15951ft 399kts
05-Jan-21 09:34 36.199713 -114.853705 86 18909ft 422kts
05-Jan-21 09:35 36.199675 -114.705660 87 21682ft 440kts
05-Jan-21 09:36 36.198060 -114.551090 87 24091ft 456kts
05-Jan-21 09:37 36.195877 -114.391768 87 26360ft 466kts
05-Jan-21 09:38 36.195599 -114.230322 80 28267ft 472kts
05-Jan-21 09:39 36.214378 -114.068560 77 29949ft 477kts
05-Jan-21 09:40 36.233779 -113.903683 78 31217ft 489kts
05-Jan-21 09:41 36.253617 -113.736626 78 32731ft 489kts
05-Jan-21 09:42 36.273337 -113.569530 78 34030ft 491kts
05-Jan-21 09:43 36.292338 -113.402065 79 35336ft 489kts
05-Jan-21 09:44 36.315027 -113.235492 69 36395ft 486kts
05-Jan-21 09:45 36.372805 -113.086486 57 37288ft 482kts
05-Jan-21 09:46 36.437535 -112.940374 57 37307ft 481kts
05-Jan-21 09:47 36.502235 -112.793952 57 37308ft 483kts
05-Jan-21 09:48 36.566676 -112.647922 57 37314ft 483kts
05-Jan-21 09:49 36.631056 -112.500641 57 37314ft 484kts
05-Jan-21 09:50 36.695144 -112.353249 58 37313ft 484kts
05-Jan-21 09:52 36.769971 -112.180281 58 37309ft 485kts
05-Jan-21 09:52 36.823119 -112.056865 58 37300ft 486kts
05-Jan-21 09:53 36.887261 -111.907307 58 37287ft 490kts
05-Jan-21 09:54 36.951283 -111.757321 58 37273ft 490kts
05-Jan-21 09:55 37.015376 -111.606470 58 37261ft 490kts
05-Jan-21 09:56 37.079161 -111.455647 59 37262ft 491kts
05-Jan-21 09:57 37.142836 -111.304379 59 37261ft 491kts
05-Jan-21 09:58 37.206618 -111.152139 59 37262ft 492kts
05-Jan-21 09:59 37.270015 -111.000099 59 37265ft 493kts
05-Jan-21 10:00 37.333539 -110.847020 59 37266ft 493kts
05-Jan-21 10:01 37.396711 -110.694065 59 37266ft 493kts
05-Jan-21 10:02 37.459755 -110.540679 60 37277ft 493kts
05-Jan-21 10:03 37.522360 -110.387625 60 37275ft 492kts
05-Jan-21 10:04 37.584952 -110.233861 60 37276ft 492kts
05-Jan-21 10:05 37.647089 -110.080465 60 37279ft 491kts
05-Jan-21 10:06 37.709100 -109.926635 60 37279ft 491kts
05-Jan-21 10:07 37.770797 -109.772834 60 37279ft 491kts
05-Jan-21 10:08 37.832242 -109.618804 59 37271ft 487kts
05-Jan-21 10:09 37.893350 -109.465057 59 37267ft 489kts
05-Jan-21 10:10 37.954281 -109.310912 60 37255ft 490kts
05-Jan-21 10:11 38.015404 -109.156270 60 37253ft 491kts
05-Jan-21 10:12 38.076029 -109.000709 60 37252ft 491kts
05-Jan-21 10:13 38.136749 -108.845550 60 37243ft 492kts
05-Jan-21 10:14 38.197775 -108.689392 61 37209ft 493kts
05-Jan-21 10:15 38.258729 -108.532880 60 37190ft 493kts
05-Jan-21 10:16 38.320180 -108.376113 61 37209ft 494kts
05-Jan-21 10:17 38.381322 -108.218601 62 37210ft 495kts
05-Jan-21 10:18 38.441720 -108.060894 62 37210ft 495kts
05-Jan-21 10:19 38.501800 -107.902378 62 37210ft 496kts
05-Jan-21 10:20 38.561792 -107.744283 62 37207ft 495kts
05-Jan-21 10:21 38.621247 -107.584982 62 37198ft 496kts
05-Jan-21 10:22 38.681002 -107.425470 62 37186ft 496kts
05-Jan-21 10:23 38.740785 -107.266717 62 37157ft 496kts
05-Jan-21 10:24 38.800380 -107.107490 63 37138ft 496kts
05-Jan-21 10:25 38.860711 -106.947784 62 37128ft 497kts
05-Jan-21 10:26 38.920674 -106.787332 63 37095ft 497kts
05-Jan-21 10:27 38.979821 -106.626799 63 37070ft 498kts
05-Jan-21 10:28 39.039231 -106.465750 64 36600ft 497kts
05-Jan-21 10:29 39.097896 -106.304364 64 33592ft 500kts
05-Jan-21 10:30 39.156659 -106.141808 63 30744ft 493kts
05-Jan-21 10:31 39.213747 -105.984619 63 28340ft 476kts
05-Jan-21 10:32 39.268610 -105.831547 63 25941ft 462kts
05-Jan-21 10:33 39.321604 -105.682721 63 23567ft 451kts
05-Jan-21 10:34 39.374418 -105.538128 62 21221ft 435kts
05-Jan-21 10:35 39.423125 -105.409038 54 20432ft 371kts
05-Jan-21 10:36 39.482451 -105.300649 51 18690ft 366kts
05-Jan-21 10:37 39.540117 -105.194111 51 17065ft 354kts
05-Jan-21 10:38 39.595016 -105.093019 51 15942ft 338kts
05-Jan-21 10:39 39.648412 -104.993391 52 14858ft 331kts
05-Jan-21 10:40 39.700579 -104.895733 52 13802ft 326kts
05-Jan-21 10:41 39.770576 -104.841842 2 12763ft 291kts
05-Jan-21 10:42 39.850363 -104.839873 355 11745ft 281kts
05-Jan-21 10:43 39.928354 -104.839914 355 10138ft 278kts
05-Jan-21 10:44 40.005181 -104.840399 355 9049ft 274kts
05-Jan-21 10:45 40.081949 -104.837562 11 8925ft 283kts
05-Jan-21 10:46 40.117351 -104.750530 86 8022ft 285kts
05-Jan-21 10:47 40.085802 -104.677818 178 7552ft 227kts
05-Jan-21 10:48 40.026004 -104.684653 188 7118ft 204kts
05-Jan-21 10:50 39.972375 -104.685938 183 6911ft 190kts
05-Jan-21 10:51 39.924777 -104.686372 182 5984ft 149kts
05-Jan-21 10:52 39.885184 -104.686973 179 5442ft 106kts
05-Jan-21 10:53 39.871276 -104.684719 111 5442ft 17kts
05-Jan-21 10:54 39.866726 -104.683869 180 5442ft 22kts
05-Jan-21 10:55 39.861449 -104.682982 92 5442ft 17kts
05-Jan-21 10:56 39.862061 -104.677651 0 5442ft 12kts
05-Jan-21 10:57 39.862635 -104.677639 0 5442ft 0kts
05-Jan-21 10:58 39.862635 -104.677639 0 5442ft 0kts

Navigation Log

Ident Type
Flight plan parsing failed, navigation log unavailable